createdAt,value
2018-03-03T00:01:11.315Z,1.10
2018-03-03T00:03:38.754Z,1.20
2018-03-03T00:06:06.221Z,1.30
2018-03-03T00:08:33.769Z,1.50
2018-03-03T00:11:01.207Z,1.60
2018-03-03T00:13:28.682Z,1.50
2018-03-03T00:15:56.369Z,1.20
2018-03-03T00:18:23.847Z,1.00
2018-03-03T00:20:51.299Z,1.10
2018-03-03T00:23:18.745Z,1.20
2018-03-03T00:25:46.188Z,1.30
2018-03-03T00:28:13.636Z,1.30
2018-03-03T00:30:41.191Z,1.30
2018-03-03T00:33:08.877Z,1.20
2018-03-03T00:35:36.331Z,1.20
2018-03-03T00:38:03.800Z,1.10
2018-03-03T00:40:31.238Z,0.80
2018-03-03T00:42:58.696Z,0.80
2018-03-03T00:45:26.139Z,0.70
2018-03-03T00:47:53.605Z,1.00
2018-03-03T00:50:21.068Z,0.80
2018-03-03T00:52:48.510Z,0.80
2018-03-03T00:55:15.977Z,0.70
2018-03-03T00:57:43.420Z,0.80
2018-03-03T01:00:10.856Z,0.80
2018-03-03T01:02:39.068Z,0.90
2018-03-03T01:05:06.525Z,0.80
2018-03-03T01:07:33.968Z,0.90
2018-03-03T01:10:01.412Z,0.80
2018-03-03T01:12:28.881Z,0.90
2018-03-03T01:14:56.305Z,1.10
2018-03-03T01:17:24.528Z,1.30
2018-03-03T01:19:51.973Z,1.20
2018-03-03T01:22:19.429Z,1.50
2018-03-03T01:24:46.867Z,1.50
2018-03-03T01:27:14.332Z,1.60
2018-03-03T01:29:41.802Z,1.80
2018-03-03T01:32:09.236Z,1.70
2018-03-03T01:34:36.700Z,1.60
2018-03-03T01:37:04.157Z,1.70
2018-03-03T01:39:31.623Z,1.70
2018-03-03T01:41:59.070Z,1.90
2018-03-03T01:44:26.536Z,1.80
2018-03-03T01:46:53.966Z,1.90
2018-03-03T01:49:21.415Z,1.90
2018-03-03T01:51:48.851Z,1.70
2018-03-03T01:54:16.313Z,1.70
2018-03-03T01:56:43.743Z,1.70
2018-03-03T01:59:11.216Z,1.50
2018-03-03T02:01:38.659Z,1.40
2018-03-03T02:04:06.111Z,1.40
2018-03-03T02:06:33.547Z,1.50
2018-03-03T02:09:00.990Z,1.60
2018-03-03T02:11:28.416Z,1.50
2018-03-03T02:13:55.850Z,1.50
2018-03-03T02:16:23.308Z,1.50
2018-03-03T02:18:50.828Z,1.60
2018-03-03T02:21:18.287Z,1.60
2018-03-03T02:23:45.739Z,1.60
2018-03-03T02:26:13.516Z,1.60
2018-03-03T02:28:40.958Z,1.50
2018-03-03T02:31:08.391Z,1.60
2018-03-03T02:33:35.832Z,1.80
2018-03-03T02:36:03.264Z,1.80
2018-03-03T02:38:30.718Z,1.60
2018-03-03T02:40:58.251Z,1.60
2018-03-03T02:43:25.704Z,1.60
2018-03-03T02:45:53.145Z,1.70
2018-03-03T02:48:21.365Z,1.50
2018-03-03T02:50:48.813Z,1.40
2018-03-03T02:53:16.262Z,1.50
2018-03-03T02:55:43.708Z,1.50
2018-03-03T02:58:11.155Z,1.50
2018-03-03T03:00:38.598Z,1.50
2018-03-03T03:03:06.047Z,1.20
2018-03-03T03:05:33.519Z,1.30
2018-03-03T03:08:00.964Z,1.20
2018-03-03T03:10:28.416Z,1.20
2018-03-03T03:12:55.842Z,1.20
2018-03-03T03:15:23.289Z,1.10
2018-03-03T03:17:50.744Z,1.20
2018-03-03T03:20:18.200Z,1.30
2018-03-03T03:22:45.656Z,1.10
2018-03-03T03:25:13.099Z,1.20
2018-03-03T03:27:40.543Z,1.10
2018-03-03T03:30:07.981Z,0.70
2018-03-03T03:32:35.431Z,0.40
2018-03-03T03:35:02.868Z,0.10
2018-03-03T03:37:30.328Z,0.10
2018-03-03T03:39:57.776Z,0.10
2018-03-03T03:42:25.211Z,0.10
2018-03-03T03:44:52.976Z,0.20
2018-03-03T03:47:20.404Z,0.10
2018-03-03T03:49:47.862Z,0.10
2018-03-03T03:52:16.063Z,0.30
2018-03-03T03:54:43.506Z,0.20
2018-03-03T03:57:10.947Z,0.20
2018-03-03T03:59:38.396Z,-0.10
2018-03-03T04:02:06.100Z,-0.20
2018-03-03T04:04:33.512Z,-0.20
2018-03-03T04:07:00.975Z,-0.30
2018-03-03T04:09:29.178Z,0.00
2018-03-03T04:11:57.510Z,0.00
2018-03-03T04:14:24.957Z,0.20
2018-03-03T04:16:52.420Z,0.30
2018-03-03T04:19:19.956Z,0.50
2018-03-03T04:21:47.400Z,0.30
2018-03-03T04:24:14.851Z,0.10
2018-03-03T04:26:42.309Z,0.10
2018-03-03T04:29:09.749Z,0.30
2018-03-03T04:31:37.192Z,0.30
2018-03-03T04:34:04.628Z,0.20
2018-03-03T04:36:32.079Z,0.30
2018-03-03T04:38:59.527Z,0.00
2018-03-03T04:41:26.975Z,-0.10
2018-03-03T04:43:54.413Z,-0.10
2018-03-03T04:46:21.880Z,-0.10
2018-03-03T04:48:49.346Z,-0.30
2018-03-03T04:51:16.787Z,-0.30
2018-03-03T04:53:45.011Z,-0.40
2018-03-03T04:56:12.450Z,-0.40
2018-03-03T04:58:39.897Z,-0.40
2018-03-03T05:01:07.351Z,-0.30
2018-03-03T05:03:37.256Z,-0.50
2018-03-03T05:06:19.574Z,-0.60
2018-03-03T05:08:47.025Z,-0.60
2018-03-03T05:11:15.896Z,-0.40
2018-03-03T05:13:43.353Z,-0.40
2018-03-03T05:16:23.009Z,-0.40
2018-03-03T05:18:56.148Z,-0.50
2018-03-03T05:21:39.267Z,-0.30
2018-03-03T05:24:19.516Z,-0.20
2018-03-03T05:26:53.411Z,0.10
2018-03-03T05:29:26.420Z,0.00
2018-03-03T05:31:59.426Z,0.10
2018-03-03T05:34:44.675Z,0.30
2018-03-03T05:37:32.814Z,0.00
2018-03-03T05:40:05.970Z,0.20
2018-03-03T05:42:37.193Z,0.40
2018-03-03T05:45:10.209Z,0.00
2018-03-03T05:47:43.319Z,0.00
2018-03-03T05:50:17.114Z,0.30
2018-03-03T05:52:50.293Z,0.20
2018-03-03T05:55:23.365Z,0.10
2018-03-03T06:01:07.963Z,0.10
2018-03-03T06:03:41.068Z,0.20
2018-03-03T06:06:14.563Z,0.30
2018-03-03T06:08:56.866Z,0.10
2018-03-03T06:11:24.320Z,-0.20
2018-03-03T06:13:51.767Z,-0.30
2018-03-03T06:16:19.211Z,-0.20
2018-03-03T06:18:46.686Z,-0.30
2018-03-03T06:21:14.122Z,-0.10
2018-03-03T06:23:42.347Z,-0.50
2018-03-03T06:26:10.567Z,-0.50
2018-03-03T06:28:38.039Z,-0.60
2018-03-03T06:31:05.488Z,-0.60
2018-03-03T06:33:32.934Z,-0.60
2018-03-03T06:36:00.398Z,-0.60
2018-03-03T06:38:27.852Z,-0.40
2018-03-03T06:40:55.330Z,-0.30
2018-03-03T06:43:22.976Z,-0.40
2018-03-03T06:45:50.464Z,-0.40
2018-03-03T06:48:17.899Z,-0.40
2018-03-03T06:50:45.649Z,-0.50
2018-03-03T06:53:13.092Z,-0.50
2018-03-03T06:55:40.543Z,-0.40
2018-03-03T06:58:08.016Z,-0.40
2018-03-03T07:00:35.436Z,-0.30
2018-03-03T07:03:03.662Z,0.20
2018-03-03T07:05:31.118Z,0.10
2018-03-03T07:07:58.567Z,0.20
2018-03-03T07:10:26.003Z,0.20
2018-03-03T07:12:53.450Z,0.00
2018-03-03T07:15:20.900Z,0.10
2018-03-03T07:17:48.345Z,0.10
2018-03-03T07:20:15.776Z,0.30
2018-03-03T07:22:43.223Z,0.40
2018-03-03T07:25:10.717Z,0.60
2018-03-03T07:27:38.150Z,0.50
2018-03-03T07:30:05.630Z,0.90
2018-03-03T07:32:33.832Z,1.50
2018-03-03T07:35:01.281Z,1.40
2018-03-03T07:37:28.723Z,1.70
2018-03-03T07:39:56.164Z,1.90
2018-03-03T07:42:23.657Z,1.90
2018-03-03T07:44:51.049Z,2.20
2018-03-03T07:47:18.510Z,2.50
2018-03-03T07:49:45.962Z,2.60
2018-03-03T07:52:13.418Z,2.70
2018-03-03T07:54:40.855Z,2.40
2018-03-03T07:57:13.636Z,2.40
2018-03-03T07:59:41.062Z,2.30
2018-03-03T08:02:08.506Z,2.40
2018-03-03T08:04:35.965Z,2.80
2018-03-03T08:07:03.619Z,3.10
2018-03-03T08:09:31.101Z,3.00
2018-03-03T08:11:58.565Z,3.20
2018-03-03T08:14:26.012Z,3.40
2018-03-03T08:16:53.450Z,3.40
2018-03-03T08:19:20.906Z,3.40
2018-03-03T08:21:48.341Z,3.40
2018-03-03T08:24:15.799Z,3.40
2018-03-03T08:26:43.251Z,3.80
2018-03-03T08:29:10.688Z,4.20
2018-03-03T08:31:38.213Z,4.50
2018-03-03T08:34:05.639Z,4.80
2018-03-03T08:36:33.085Z,5.00
2018-03-03T08:39:00.575Z,5.10
2018-03-03T08:41:28.029Z,5.00
2018-03-03T08:43:55.530Z,5.00
2018-03-03T08:46:22.959Z,5.20
2018-03-03T08:48:50.406Z,5.20
2018-03-03T08:51:17.837Z,5.00
2018-03-03T08:53:45.284Z,4.80
2018-03-03T08:56:12.723Z,4.60
2018-03-03T08:58:40.461Z,4.70
2018-03-03T09:01:07.910Z,5.00
2018-03-03T09:03:35.356Z,5.40
2018-03-03T09:06:03.566Z,5.80
2018-03-03T09:08:31.022Z,5.70
2018-03-03T09:10:58.462Z,5.90
2018-03-03T09:13:25.950Z,6.00
2018-03-03T09:15:53.380Z,6.20
2018-03-03T09:18:20.852Z,6.50
2018-03-03T09:20:48.310Z,6.60
2018-03-03T09:23:15.746Z,6.50
2018-03-03T09:25:43.175Z,6.80
2018-03-03T09:28:10.631Z,7.00
2018-03-03T09:30:38.311Z,6.50
2018-03-03T09:33:05.768Z,6.50
2018-03-03T09:35:33.196Z,7.00
2018-03-03T09:38:00.788Z,7.50
2018-03-03T09:40:28.220Z,7.80
2018-03-03T09:42:55.668Z,8.10
2018-03-03T09:45:23.101Z,8.30
2018-03-03T09:47:50.543Z,8.40
2018-03-03T09:50:17.975Z,8.50
2018-03-03T09:52:45.454Z,8.50
2018-03-03T09:55:12.884Z,8.50
2018-03-03T09:57:40.330Z,8.80
2018-03-03T10:00:08.559Z,9.10
2018-03-03T10:02:36.031Z,9.00
2018-03-03T10:05:03.482Z,9.30
2018-03-03T10:07:30.923Z,9.30
2018-03-03T10:09:58.366Z,9.40
2018-03-03T10:12:25.799Z,9.50
2018-03-03T10:14:53.231Z,9.50
2018-03-03T10:17:20.685Z,9.50
2018-03-03T10:19:48.170Z,9.40
2018-03-03T10:22:15.627Z,9.40
2018-03-03T10:24:43.063Z,9.70
2018-03-03T10:27:11.287Z,10.00
2018-03-03T10:29:38.719Z,9.90
2018-03-03T10:32:06.209Z,10.10
2018-03-03T10:34:33.658Z,10.10
2018-03-03T10:37:01.111Z,10.00
2018-03-03T10:39:28.542Z,9.90
2018-03-03T10:41:56.007Z,9.80
2018-03-03T10:44:23.430Z,9.80
2018-03-03T10:46:50.880Z,9.80
2018-03-03T10:49:18.328Z,9.80
2018-03-03T10:51:45.771Z,9.90
2018-03-03T10:54:13.243Z,9.90
2018-03-03T10:56:40.692Z,10.00
2018-03-03T10:59:08.148Z,10.20
2018-03-03T11:01:35.592Z,10.20
2018-03-03T11:04:03.054Z,10.30
2018-03-03T11:06:30.475Z,10.50
2018-03-03T11:08:57.944Z,10.70
2018-03-03T11:11:25.413Z,10.80
2018-03-03T11:13:52.880Z,10.90
2018-03-03T11:16:20.535Z,11.00
2018-03-03T11:18:47.952Z,11.00
2018-03-03T11:21:16.201Z,11.20
2018-03-03T11:23:43.664Z,11.10
2018-03-03T11:26:11.123Z,11.50
2018-03-03T11:28:38.606Z,11.90
2018-03-03T11:31:06.039Z,12.60
2018-03-03T11:33:33.485Z,13.30
2018-03-03T11:36:00.924Z,13.80
2018-03-03T11:38:28.411Z,14.20
2018-03-03T11:40:55.831Z,14.30
2018-03-03T11:43:24.046Z,15.30
2018-03-03T11:45:51.524Z,15.20
2018-03-03T11:48:19.710Z,16.60
2018-03-03T11:50:47.151Z,16.60
2018-03-03T11:53:14.584Z,17.40
2018-03-03T11:55:42.062Z,17.60
2018-03-03T11:58:09.471Z,17.20
2018-03-03T12:00:36.911Z,17.50
2018-03-03T12:03:04.372Z,17.60
2018-03-03T12:05:31.810Z,17.80
2018-03-03T12:07:59.274Z,18.10
2018-03-03T12:10:26.814Z,18.80
2018-03-03T12:12:54.243Z,19.10
2018-03-03T12:15:21.836Z,19.50
2018-03-03T12:17:49.414Z,19.90
2018-03-03T12:20:16.849Z,19.50
2018-03-03T12:22:44.295Z,19.70
2018-03-03T12:25:12.511Z,19.40
2018-03-03T12:27:39.943Z,19.40
2018-03-03T12:30:07.390Z,19.40
2018-03-03T12:32:34.875Z,19.30
2018-03-03T12:35:02.283Z,19.20
2018-03-03T12:37:29.720Z,19.20
2018-03-03T12:39:57.450Z,19.00
2018-03-03T12:42:24.892Z,18.90
2018-03-03T12:44:52.316Z,18.90
2018-03-03T12:47:20.515Z,18.60
2018-03-03T12:49:47.972Z,18.50
2018-03-03T12:52:15.403Z,17.60
2018-03-03T12:54:42.880Z,17.90
2018-03-03T12:57:10.332Z,17.50
2018-03-03T12:59:37.743Z,17.70
2018-03-03T13:02:05.195Z,17.60
2018-03-03T17:16:16.932Z,6.20
2018-03-03T17:18:44.371Z,6.20
2018-03-03T17:21:11.829Z,6.30
2018-03-03T17:23:39.284Z,6.40
2018-03-03T17:26:06.729Z,6.40
2018-03-03T17:28:34.157Z,6.30
2018-03-03T17:31:01.613Z,6.40
2018-03-03T17:33:29.066Z,6.40
2018-03-03T17:35:56.577Z,6.40
2018-03-03T17:38:24.017Z,6.40
2018-03-03T17:40:52.215Z,6.40
2018-03-03T17:43:19.981Z,6.30
2018-03-03T17:45:47.443Z,6.10
2018-03-03T17:48:14.879Z,6.30
2018-03-03T17:50:42.339Z,6.30
2018-03-03T17:53:09.763Z,6.30
2018-03-03T17:55:37.217Z,6.30
2018-03-03T17:58:04.668Z,6.30
2018-03-03T18:00:32.108Z,6.30
2018-03-03T18:02:59.567Z,6.30
2018-03-03T18:05:27.006Z,6.20
2018-03-03T18:07:54.465Z,6.20
2018-03-03T18:10:21.923Z,6.20
2018-03-03T18:12:49.367Z,6.20
2018-03-03T18:15:16.834Z,6.10
2018-03-03T18:17:44.293Z,6.10
2018-03-03T18:20:11.720Z,6.10
2018-03-03T18:22:39.940Z,6.10
2018-03-03T18:25:07.400Z,6.10
2018-03-03T18:27:34.838Z,6.10
2018-03-03T18:30:02.272Z,6.10
2018-03-03T18:32:29.724Z,6.10
2018-03-03T18:34:57.163Z,6.10
2018-03-03T18:37:25.389Z,6.00
2018-03-03T18:39:52.816Z,6.00
2018-03-03T18:42:20.369Z,6.10
2018-03-03T18:44:47.836Z,6.10
2018-03-03T18:47:15.290Z,6.10
2018-03-03T18:49:43.499Z,6.20
2018-03-03T18:52:10.964Z,6.10
2018-03-03T18:54:38.418Z,6.20
2018-03-03T18:57:05.863Z,6.10
2018-03-03T18:59:33.294Z,6.10
2018-03-03T19:02:00.749Z,6.10
2018-03-03T19:04:28.398Z,6.10
2018-03-03T19:06:55.847Z,6.10
2018-03-03T19:09:23.292Z,6.00
2018-03-03T19:11:50.736Z,6.10
2018-03-03T19:14:18.175Z,6.00
2018-03-03T19:16:45.632Z,6.00
2018-03-03T19:19:13.084Z,6.00
2018-03-03T19:21:40.559Z,6.00
2018-03-03T19:24:07.990Z,5.50
2018-03-03T19:26:35.511Z,5.40
2018-03-03T19:29:03.732Z,4.80
2018-03-03T19:31:31.178Z,4.70
2018-03-03T19:33:58.651Z,5.00
2018-03-03T19:36:26.098Z,5.00
2018-03-03T19:38:53.528Z,4.80
2018-03-03T19:41:20.995Z,4.70
2018-03-03T19:43:48.424Z,4.70
2018-03-03T19:46:16.641Z,5.00
2018-03-03T19:48:44.166Z,5.00
2018-03-03T19:51:11.587Z,5.10
2018-03-03T19:53:39.056Z,4.80
2018-03-03T19:56:06.488Z,4.60
2018-03-03T19:58:33.940Z,4.50
2018-03-03T20:01:01.376Z,4.50
2018-03-03T20:03:28.804Z,4.30
2018-03-03T20:05:56.252Z,4.30
2018-03-03T20:08:24.453Z,4.60
2018-03-03T20:10:51.909Z,4.50
2018-03-03T20:13:19.378Z,4.70
2018-03-03T20:15:46.822Z,5.00
2018-03-03T20:18:14.244Z,5.00
2018-03-03T20:20:41.687Z,4.80
2018-03-03T20:23:09.148Z,5.00
2018-03-03T20:25:36.576Z,4.70
2018-03-03T20:28:04.032Z,4.70
2018-03-03T20:30:31.464Z,5.00
2018-03-03T20:32:59.008Z,5.10
2018-03-03T20:35:26.436Z,5.30
2018-03-03T20:37:53.891Z,5.30
2018-03-03T20:40:21.334Z,5.10
2018-03-03T20:42:48.788Z,5.00
2018-03-03T20:45:16.204Z,5.10
2018-03-03T20:47:43.641Z,5.10
2018-03-03T20:50:11.867Z,4.80
2018-03-03T20:52:39.296Z,4.70
2018-03-03T20:55:06.729Z,4.60
2018-03-03T20:57:34.940Z,5.00
2018-03-03T21:00:02.397Z,5.00
2018-03-03T21:02:29.832Z,5.10
2018-03-03T21:04:57.299Z,4.90
2018-03-03T21:07:24.747Z,5.10
2018-03-03T21:09:52.219Z,5.30
2018-03-03T21:12:25.233Z,5.10
2018-03-03T21:14:52.670Z,5.10
2018-03-03T21:17:20.307Z,4.80
2018-03-03T21:19:47.727Z,4.70
2018-03-03T21:22:15.183Z,4.60
2018-03-03T21:24:42.621Z,4.70
2018-03-03T21:27:10.078Z,4.50
2018-03-03T21:29:37.523Z,4.30
2018-03-03T21:32:04.971Z,4.10
2018-03-03T21:34:32.428Z,3.90
2018-03-03T21:36:59.873Z,4.10
2018-03-03T21:39:27.372Z,4.00
2018-03-03T21:41:54.830Z,4.10
2018-03-03T21:44:22.600Z,4.10
2018-03-03T21:46:50.019Z,4.20
2018-03-03T21:49:17.452Z,4.20
2018-03-03T21:51:44.891Z,4.20
2018-03-03T21:54:13.099Z,4.00
2018-03-03T21:56:40.534Z,3.90
2018-03-03T21:59:07.974Z,3.90
2018-03-03T22:01:36.355Z,3.80
2018-03-03T22:04:03.804Z,3.70
2018-03-03T22:06:31.244Z,3.60
2018-03-03T22:08:58.701Z,3.60
2018-03-03T22:11:26.163Z,3.70
2018-03-03T22:13:53.593Z,3.60
2018-03-03T22:16:21.047Z,3.60
2018-03-03T22:18:48.498Z,3.40
2018-03-03T22:21:15.919Z,3.20
2018-03-03T22:23:44.135Z,3.40
2018-03-03T22:26:11.588Z,3.30
2018-03-03T22:28:39.046Z,3.60
2018-03-03T22:31:06.475Z,3.70
2018-03-03T22:33:33.916Z,3.70
2018-03-03T22:36:02.131Z,3.40
2018-03-03T22:38:29.589Z,3.30
2018-03-03T22:40:57.027Z,3.30
2018-03-03T22:43:24.487Z,3.10
2018-03-03T22:45:52.133Z,3.30
2018-03-03T22:48:19.570Z,3.60
2018-03-03T22:50:47.016Z,3.60
2018-03-03T22:53:14.452Z,3.70
2018-03-03T22:55:41.936Z,3.40
2018-03-03T22:58:09.390Z,3.30
2018-03-03T23:00:36.833Z,3.30
2018-03-03T23:03:04.272Z,3.40
2018-03-03T23:05:31.740Z,3.30
2018-03-03T23:07:59.176Z,3.30
2018-03-03T23:10:26.620Z,3.20
2018-03-03T23:12:54.040Z,3.10
2018-03-03T23:15:22.255Z,3.20
2018-03-03T23:17:49.679Z,3.10
2018-03-03T23:20:18.815Z,3.20
2018-03-03T23:22:46.255Z,3.20
2018-03-03T23:25:14.038Z,3.20
2018-03-03T23:27:41.465Z,3.20
2018-03-03T23:30:08.889Z,3.30
2018-03-03T23:32:36.348Z,3.60
2018-03-03T23:35:03.799Z,3.60
2018-03-03T23:37:31.226Z,3.60
2018-03-03T23:39:58.679Z,3.60
2018-03-03T23:42:26.144Z,3.60
2018-03-03T23:44:53.591Z,3.60
2018-03-03T23:47:21.049Z,3.60
2018-03-03T23:49:48.507Z,3.80
2018-03-03T23:52:15.944Z,3.80
2018-03-03T23:54:43.388Z,3.70
2018-03-03T23:57:10.860Z,3.70
2018-03-03T23:59:38.289Z,3.50
